Time;durP1;ratioP1;P1;durP2;ratioP2;P2;SDS_P1;SDS_P2;PMS_P1;PMS_P2;Temp;Humidity;BMP_temperature;BMP_pressure;BME280_temperature;BME280_humidity;BME280_pressure;Samples;Min_cycle;Max_cycle;Signal;HPM_P1;HPM_P2
2022/06/20 00:02:03;;;;;;;4.60;1.30;;;38.50;13.30;;;;;;4989916;28;20444;-65
2022/06/20 00:04:29;;;;;;;2.92;1.10;;;38.30;13.00;;;;;;4988155;28;20065;-65
2022/06/20 00:06:56;;;;;;;6.35;0.88;;;38.30;13.20;;;;;;4972072;28;20041;-65
2022/06/20 00:09:22;;;;;;;2.50;1.30;;;38.30;12.90;;;;;;5004282;28;20446;-66
2022/06/20 00:11:50;;;;;;;4.85;1.23;;;38.30;13.50;;;;;;4971510;28;20026;-65
2022/06/20 00:14:21;;;;;;;5.72;0.98;;;38.20;13.00;;;;;;4994624;28;20510;-66
2022/06/20 00:16:47;;;;;;;4.90;1.20;;;38.10;13.50;;;;;;4984811;28;20075;-65
2022/06/20 00:19:15;;;;;;;5.80;1.02;;;38.00;13.80;;;;;;4987789;28;20041;-64
2022/06/20 00:21:42;;;;;;;3.33;0.95;;;37.80;13.70;;;;;;4991756;28;20056;-64
2022/06/20 00:24:08;;;;;;;3.40;1.50;;;37.80;14.20;;;;;;4993345;28;20129;-65
2022/06/20 00:26:36;;;;;;;5.13;1.30;;;37.80;14.20;;;;;;4987587;28;20073;-63
2022/06/20 00:29:07;;;;;;;2.10;1.25;;;37.80;13.80;;;;;;5000029;28;20082;-63
2022/06/20 00:31:35;;;;;;;5.22;1.30;;;37.70;13.50;;;;;;4997110;28;20033;-65
2022/06/20 00:34:01;;;;;;;7.75;2.10;;;37.50;13.80;;;;;;4994485;28;20065;-66
2022/06/20 00:36:28;;;;;;;5.30;1.42;;;37.60;13.80;;;;;;4994555;28;20076;-65
2022/06/20 00:38:56;;;;;;;4.53;2.40;;;37.60;14.20;;;;;;4993494;28;20043;-67
2022/06/20 00:41:34;;;;;;;5.90;2.10;;;37.50;14.50;;;;;;4992875;28;20048;-65
2022/06/20 00:44:02;;;;;;;5.38;3.75;;;37.50;14.10;;;;;;4991166;28;20100;-64
2022/06/20 00:46:49;;;;;;;3.05;1.10;;;37.50;14.20;;;;;;4990733;28;20047;-65
2022/06/20 00:49:26;;;;;;;5.80;1.50;;;37.40;13.60;;;;;;4990682;28;20847;-68
2022/06/20 00:52:23;;;;;;;7.97;5.93;;;37.30;14.10;;;;;;4989807;28;20085;-63
2022/06/20 00:55:05;;;;;;;2.30;1.23;;;37.20;13.60;;;;;;4989491;28;20417;-64
2022/06/20 00:57:31;;;;;;;3.08;1.20;;;37.20;14.40;;;;;;4991859;28;20097;-64
2022/06/20 01:00:16;;;;;;;3.85;1.20;;;36.90;14.30;;;;;;4991618;28;20062;-63
2022/06/20 01:02:57;;;;;;;2.72;0.90;;;36.80;14.00;;;;;;4993603;28;20528;-63
2022/06/20 01:05:57;;;;;;;3.90;1.35;;;36.60;14.10;;;;;;4975144;28;20497;-62
2022/06/20 01:08:28;;;;;;;3.40;1.27;;;36.60;14.10;;;;;;4988493;28;20049;-63
2022/06/20 01:11:12;;;;;;;3.47;1.30;;;36.60;14.10;;;;;;4990215;28;20045;-62
2022/06/20 01:13:39;;;;;;;4.18;1.40;;;36.50;13.90;;;;;;4990021;28;20042;-62
2022/06/20 01:16:16;;;;;;;2.80;0.80;;;36.40;14.50;;;;;;4990762;28;20046;-64
2022/06/20 01:18:46;;;;;;;5.63;1.40;;;36.30;14.50;;;;;;4990256;28;20090;-61
2022/06/20 01:21:20;;;;;;;2.13;0.70;;;36.10;14.60;;;;;;4993699;28;20057;-68
2022/06/20 01:24:23;;;;;;;4.55;1.20;;;36.00;14.70;;;;;;4991350;28;20055;-62
2022/06/20 01:27:18;;;;;;;6.75;1.70;;;35.90;14.40;;;;;;4984297;28;20092;-63
2022/06/20 01:29:45;;;;;;;4.28;1.50;;;35.80;14.30;;;;;;4986272;28;20176;-63
2022/06/20 01:32:12;;;;;;;8.82;1.17;;;35.80;14.70;;;;;;4989751;28;20056;-62
2022/06/20 01:34:39;;;;;;;5.78;0.98;;;35.70;15.20;;;;;;4989476;28;20097;-63
2022/06/20 01:37:29;;;;;;;5.00;1.30;;;35.50;14.50;;;;;;4973829;28;20063;-63
2022/06/20 01:40:06;;;;;;;2.72;1.00;;;35.40;14.10;;;;;;4990349;28;20046;-63
2022/06/20 01:42:34;;;;;;;2.25;0.85;;;35.30;14.30;;;;;;4990781;28;20544;-63
2022/06/20 01:48:09;;;;;;;3.80;1.00;;;35.10;14.10;;;;;;4989432;28;20685;-62
2022/06/20 01:50:37;;;;;;;3.13;1.00;;;35.00;14.20;;;;;;4986449;28;20059;-63
2022/06/20 01:53:07;;;;;;;3.58;1.27;;;34.90;14.20;;;;;;4990718;28;20062;-63
2022/06/20 01:55:35;;;;;;;3.83;1.50;;;34.90;14.50;;;;;;4990669;28;20155;-61
2022/06/20 01:58:39;;;;;;;11.30;5.80;;;34.80;14.60;;;;;;4989685;28;20527;-64
2022/06/20 02:01:07;;;;;;;6.70;3.95;;;34.70;14.10;;;;;;4943877;28;20072;-64
2022/06/20 02:03:38;;;;;;;1.90;1.80;;;34.60;14.00;;;;;;4955418;28;20069;-63
2022/06/20 02:06:07;;;;;;;2.72;1.10;;;34.50;14.00;;;;;;4954671;28;20061;-63
2022/06/20 02:08:38;;;;;;;5.22;1.20;;;34.40;15.00;;;;;;4948532;28;20057;-64
2022/06/20 02:11:16;;;;;;;1.90;1.20;;;34.40;14.20;;;;;;4957054;28;20115;-62
2022/06/20 02:13:48;;;;;;;4.28;1.20;;;34.20;14.20;;;;;;4951533;28;20611;-61
2022/06/20 02:16:18;;;;;;;3.47;1.30;;;34.10;14.10;;;;;;4938962;28;20057;-62
2022/06/20 02:18:49;;;;;;;3.63;1.30;;;34.00;14.70;;;;;;4950971;28;20051;-62
2022/06/20 02:21:23;;;;;;;4.28;1.40;;;34.00;14.60;;;;;;4953288;28;20122;-64
2022/06/20 02:23:55;;;;;;;3.80;1.40;;;33.90;14.90;;;;;;4949207;28;20071;-63
2022/06/20 02:26:23;;;;;;;2.05;0.98;;;33.70;15.10;;;;;;4940149;28;20094;-63
2022/06/20 02:29:08;;;;;;;2.83;1.25;;;33.70;14.80;;;;;;4948901;28;20073;-63
2022/06/20 02:31:34;;;;;;;8.45;1.30;;;33.50;14.80;;;;;;4949712;28;20063;-64
2022/06/20 02:34:02;;;;;;;4.32;1.45;;;33.50;15.00;;;;;;4933607;28;20082;-63
2022/06/20 02:36:31;;;;;;;4.95;1.10;;;33.40;15.30;;;;;;4969650;28;20143;-63
2022/06/20 02:38:57;;;;;;;6.38;1.10;;;33.30;15.40;;;;;;4971716;28;20055;-63
2022/06/20 02:41:28;;;;;;;4.85;1.48;;;33.20;15.30;;;;;;5005333;28;20116;-62
2022/06/20 02:44:13;;;;;;;9.30;4.07;;;33.10;15.40;;;;;;4972842;28;20091;-64
2022/06/20 02:46:42;;;;;;;10.23;3.72;;;33.10;15.60;;;;;;4972984;28;20080;-63
2022/06/20 02:49:09;;;;;;;13.70;2.95;;;32.90;15.40;;;;;;4989305;28;20030;-62
2022/06/20 02:51:39;;;;;;;8.95;2.70;;;32.80;15.90;;;;;;4985625;28;20063;-63
2022/06/20 02:54:08;;;;;;;14.75;2.20;;;32.70;16.20;;;;;;4990045;28;20087;-63
2022/06/20 02:56:42;;;;;;;10.05;2.05;;;32.70;16.40;;;;;;4988805;28;20085;-64
2022/06/20 02:59:17;;;;;;;7.63;2.15;;;32.50;16.30;;;;;;4999380;28;20066;-63
2022/06/20 03:01:57;;;;;;;12.15;2.10;;;32.50;16.20;;;;;;4987031;28;20418;-63
2022/06/20 03:04:24;;;;;;;13.95;2.45;;;32.40;16.20;;;;;;4987793;28;20536;-62
2022/06/20 03:07:01;;;;;;;8.90;2.30;;;32.30;16.20;;;;;;4987045;28;20095;-64
2022/06/20 03:09:35;;;;;;;12.02;2.30;;;32.20;16.30;;;;;;4991421;28;20411;-63
2022/06/20 03:12:05;;;;;;;18.10;4.03;;;32.20;16.50;;;;;;4988550;28;20075;-63
2022/06/20 03:14:42;;;;;;;13.32;5.35;;;32.10;16.40;;;;;;4987942;28;20563;-62
2022/06/20 03:17:10;;;;;;;16.20;9.80;;;32.00;16.50;;;;;;4988098;28;20095;-63
2022/06/20 03:19:40;;;;;;;17.40;6.60;;;32.00;16.50;;;;;;4991428;28;20022;-62
2022/06/20 03:22:11;;;;;;;14.63;5.32;;;31.90;16.90;;;;;;4989621;28;20193;-63
2022/06/20 03:24:38;;;;;;;11.77;5.57;;;31.90;17.10;;;;;;4972790;28;20066;-62
2022/06/20 03:27:07;;;;;;;16.90;8.43;;;31.80;17.10;;;;;;4988290;28;20569;-67
2022/06/20 03:29:38;;;;;;;15.10;7.00;;;31.80;17.10;;;;;;4974334;28;20181;-63
2022/06/20 03:32:06;;;;;;;15.48;5.28;;;31.70;17.10;;;;;;4990414;28;20171;-62
2022/06/20 03:34:32;;;;;;;9.38;3.88;;;31.60;17.00;;;;;;4975363;28;20088;-64
2022/06/20 03:37:02;;;;;;;12.60;3.63;;;31.50;17.30;;;;;;4976866;28;20897;-63
2022/06/20 03:39:29;;;;;;;12.27;2.50;;;31.50;17.20;;;;;;4992068;28;20078;-64
2022/06/20 03:41:57;;;;;;;15.27;2.83;;;31.30;17.60;;;;;;4991521;28;20068;-63
2022/06/20 03:44:29;;;;;;;12.82;2.40;;;31.30;17.60;;;;;;4989750;28;20932;-63
2022/06/20 03:47:05;;;;;;;13.38;3.47;;;31.30;18.00;;;;;;4998744;28;20102;-63
2022/06/20 03:49:52;;;;;;;11.33;2.57;;;31.20;18.20;;;;;;4987786;28;20084;-63
2022/06/20 03:52:24;;;;;;;9.70;3.17;;;31.10;17.60;;;;;;4985882;28;20327;-65
2022/06/20 03:55:18;;;;;;;19.10;4.57;;;31.10;18.20;;;;;;4991209;28;20083;-64
2022/06/20 03:57:55;;;;;;;14.90;3.55;;;31.00;17.90;;;;;;4969197;28;20116;-63
2022/06/20 04:00:35;;;;;;;9.82;3.85;;;30.90;17.70;;;;;;4989314;28;20570;-63
2022/06/20 04:03:28;;;;;;;15.23;3.80;;;30.80;17.70;;;;;;4991450;28;20540;-65
2022/06/20 04:06:12;;;;;;;17.20;4.43;;;30.80;18.40;;;;;;4997394;28;20135;-61
2022/06/20 04:11:38;;;;;;;17.05;5.28;;;30.70;18.80;;;;;;4990948;28;20171;-63
2022/06/20 04:14:04;;;;;;;16.77;5.78;;;30.60;18.80;;;;;;4991132;28;20734;-63
2022/06/20 04:16:57;;;;;;;14.95;5.60;;;30.50;19.00;;;;;;4992495;28;20089;-63
2022/06/20 04:19:36;;;;;;;19.67;5.03;;;30.50;20.70;;;;;;4992144;28;20562;-64
2022/06/20 04:22:15;;;;;;;21.58;5.60;;;30.40;20.30;;;;;;4990987;28;20134;-64
2022/06/20 04:25:20;;;;;;;18.40;5.07;;;30.20;19.60;;;;;;4975494;28;20064;-62
2022/06/20 04:27:54;;;;;;;9.95;4.05;;;30.20;19.90;;;;;;4953489;28;20568;-63
2022/06/20 04:30:42;;;;;;;18.33;4.47;;;30.10;19.90;;;;;;4936749;28;20083;-63
2022/06/20 04:33:20;;;;;;;15.55;4.57;;;30.10;19.80;;;;;;4954252;28;21171;-64
2022/06/20 04:36:25;;;;;;;15.32;4.18;;;30.00;21.00;;;;;;4952372;28;20573;-64
2022/06/20 04:38:58;;;;;;;19.83;5.10;;;30.00;21.40;;;;;;4911337;29;20105;-64
2022/06/20 04:41:37;;;;;;;15.50;4.70;;;29.80;21.30;;;;;;4913155;29;20086;-63
2022/06/20 04:44:13;;;;;;;31.50;6.85;;;29.80;21.80;;;;;;4897733;29;20075;-64
2022/06/20 04:46:57;;;;;;;25.40;6.43;;;29.80;20.20;;;;;;4896257;29;20953;-63
2022/06/20 04:49:23;;;;;;;29.08;6.75;;;29.70;20.60;;;;;;4899049;29;20083;-64
2022/06/20 04:51:50;;;;;;;35.50;8.07;;;29.70;20.60;;;;;;4913253;29;20155;-66
2022/06/20 04:54:20;;;;;;;39.50;8.20;;;29.60;20.00;;;;;;4909403;29;20082;-63
2022/06/20 04:56:53;;;;;;;56.35;9.02;;;29.70;19.50;;;;;;4895500;29;20585;-62
2022/06/20 04:59:30;;;;;;;41.55;9.80;;;29.70;19.50;;;;;;4912712;29;20083;-62
2022/06/20 05:01:59;;;;;;;54.45;11.75;;;29.60;20.30;;;;;;4914621;29;20578;-63
2022/06/20 05:04:40;;;;;;;45.75;11.27;;;29.60;20.50;;;;;;4914548;29;20499;-62
2022/06/20 05:07:20;;;;;;;40.95;9.32;;;29.60;20.10;;;;;;4934540;28;20494;-63
2022/06/20 05:10:18;;;;;;;49.20;9.15;;;29.60;19.70;;;;;;4937931;29;20085;-62
2022/06/20 05:12:54;;;;;;;49.00;8.80;;;29.60;20.30;;;;;;4913930;29;20972;-65
2022/06/20 05:15:46;;;;;;;57.47;9.90;;;29.60;20.20;;;;;;4978144;28;20089;-62
2022/06/20 05:18:23;;;;;;;47.13;9.25;;;29.60;20.50;;;;;;4996328;28;20178;-65
2022/06/20 05:20:54;;;;;;;57.53;9.65;;;29.60;22.10;;;;;;4990158;28;20081;-62
2022/06/20 05:23:28;;;;;;;52.25;10.02;;;29.50;21.30;;;;;;4988668;28;20078;-63
2022/06/20 05:25:55;;;;;;;64.93;9.13;;;29.40;21.30;;;;;;4989720;28;20119;-63
2022/06/20 05:28:24;;;;;;;53.22;9.98;;;29.40;21.60;;;;;;4989333;28;20081;-63
2022/06/20 05:30:51;;;;;;;59.30;10.65;;;29.30;22.70;;;;;;4973599;28;20148;-62
2022/06/20 05:33:30;;;;;;;67.20;10.40;;;29.20;22.60;;;;;;4989826;28;20077;-64
2022/06/20 05:36:12;;;;;;;81.70;10.00;;;29.20;22.40;;;;;;4998028;28;20151;-64
2022/06/20 05:38:48;;;;;;;82.75;10.65;;;29.20;22.60;;;;;;5002783;28;20104;-63
2022/06/20 05:41:17;;;;;;;70.10;10.48;;;29.10;22.70;;;;;;5002868;28;20116;-64
2022/06/20 05:43:43;;;;;;;65.28;10.02;;;29.10;23.10;;;;;;4991994;28;20152;-63
2022/06/20 05:46:31;;;;;;;66.68;9.60;;;29.00;22.90;;;;;;4989672;28;20169;-63
2022/06/20 05:49:20;;;;;;;70.07;9.93;;;29.00;23.80;;;;;;4977679;28;20077;-63
2022/06/20 05:51:48;;;;;;;76.85;9.88;;;28.90;22.70;;;;;;4991640;28;20176;-63
2022/06/20 05:54:24;;;;;;;84.05;11.07;;;28.90;23.60;;;;;;4988943;28;20074;-63
2022/06/20 05:57:15;;;;;;;88.05;10.30;;;28.80;24.20;;;;;;5005003;28;20133;-62
2022/06/20 05:59:49;;;;;;;106.28;12.52;;;28.70;23.60;;;;;;4974275;28;20084;-65
2022/06/20 06:02:27;;;;;;;93.90;25.88;;;28.70;23.30;;;;;;4990359;28;20124;-62
2022/06/20 06:05:06;;;;;;;88.15;19.48;;;28.60;24.10;;;;;;4993084;28;20084;-65
2022/06/20 06:07:38;;;;;;;74.80;11.85;;;28.60;25.00;;;;;;4989492;28;20169;-62
2022/06/20 06:10:25;;;;;;;69.15;11.30;;;28.50;24.10;;;;;;4972947;28;20084;-63
2022/06/20 06:13:15;;;;;;;99.95;12.18;;;28.50;24.60;;;;;;4951200;28;20708;-65
2022/06/20 06:19:16;;;;;;;91.18;12.75;;;28.40;25.10;;;;;;4955610;28;20178;-62
2022/06/20 06:21:47;;;;;;;67.80;11.15;;;28.30;24.20;;;;;;4951630;28;20090;-63
2022/06/20 06:24:17;;;;;;;77.47;10.32;;;28.30;24.60;;;;;;4951319;28;20094;-63
2022/06/20 06:26:47;;;;;;;82.28;10.88;;;28.20;24.30;;;;;;4950807;28;20116;-62
2022/06/20 06:29:22;;;;;;;86.22;10.70;;;28.20;25.50;;;;;;4937773;28;20112;-64
2022/06/20 06:31:52;;;;;;;60.17;8.57;;;28.20;26.00;;;;;;4957959;28;20482;-63
2022/06/20 06:34:53;;;;;;;58.58;9.35;;;28.10;25.70;;;;;;4935413;28;20094;-64
2022/06/20 06:37:51;;;;;;;53.95;8.63;;;28.00;25.40;;;;;;4953361;28;20109;-62
2022/06/20 06:40:46;;;;;;;53.67;8.90;;;28.00;26.60;;;;;;4968706;28;20549;-63
2022/06/20 06:43:42;;;;;;;56.50;9.10;;;27.90;25.90;;;;;;4954001;28;20588;-63
2022/06/20 06:46:29;;;;;;;52.58;7.88;;;27.90;26.00;;;;;;4952921;28;20074;-61
2022/06/20 06:49:11;;;;;;;46.53;7.18;;;27.90;26.20;;;;;;4971680;28;20115;-62
2022/06/20 06:52:23;;;;;;;27.95;4.15;;;27.90;26.00;;;;;;4989483;28;20574;-64
2022/06/20 06:54:58;;;;;;;17.45;3.55;;;27.90;24.90;;;;;;4989032;28;20085;-64
2022/06/20 06:57:27;;;;;;;14.68;3.78;;;27.90;24.10;;;;;;4987306;28;20574;-64
2022/06/20 07:00:06;;;;;;;17.48;4.22;;;27.80;24.00;;;;;;4989942;28;20078;-63
2022/06/20 07:02:38;;;;;;;22.75;5.13;;;27.80;24.20;;;;;;5004476;28;20092;-63
2022/06/20 07:05:28;;;;;;;18.77;4.68;;;27.80;23.90;;;;;;5002695;28;20100;-62
2022/06/20 07:08:18;;;;;;;19.67;4.82;;;27.80;24.00;;;;;;4988906;28;20081;-63
2022/06/20 07:10:57;;;;;;;12.48;4.38;;;27.70;24.10;;;;;;4983022;28;20544;-66
2022/06/20 07:13:49;;;;;;;20.60;4.38;;;27.70;23.80;;;;;;4989118;28;20106;-63
2022/06/20 07:17:05;;;;;;;15.50;5.07;;;27.70;23.70;;;;;;4974252;28;20172;-63
2022/06/20 07:19:37;;;;;;;11.70;3.80;;;27.70;23.70;;;;;;4980274;28;20552;-65
2022/06/20 07:22:04;;;;;;;13.60;4.30;;;27.70;23.50;;;;;;4991002;28;20086;-65
2022/06/20 07:24:32;;;;;;;13.57;3.67;;;27.70;23.50;;;;;;4990692;28;20121;-65
2022/06/20 07:27:19;;;;;;;10.00;3.15;;;27.70;23.40;;;;;;4994885;28;20578;-64
2022/06/20 07:29:53;;;;;;;;;;;27.70;23.50;;;;;;4991069;28;20451;-64
2022/06/20 07:32:31;;;;;;;14.88;3.15;;;27.60;23.10;;;;;;4989199;28;20059;-65
2022/06/20 07:35:07;;;;;;;9.82;3.08;;;27.60;23.70;;;;;;4988735;28;20436;-64
2022/06/20 07:37:48;;;;;;;8.43;2.80;;;27.60;23.70;;;;;;4994170;28;20097;-65
2022/06/20 07:40:36;;;;;;;8.55;3.22;;;27.60;24.20;;;;;;4991898;28;20432;-64
2022/06/20 07:43:05;;;;;;;10.55;2.95;;;27.60;24.20;;;;;;4995095;28;20088;-65
2022/06/20 07:45:46;;;;;;;14.20;3.33;;;27.50;24.30;;;;;;4994120;28;20120;-63
2022/06/20 07:48:22;;;;;;;18.83;3.40;;;27.50;25.40;;;;;;4994364;28;20773;-64
2022/06/20 07:51:09;;;;;;;13.70;2.40;;;27.50;24.80;;;;;;5001779;28;20139;-65
2022/06/20 07:53:51;;;;;;;7.85;2.22;;;27.40;24.40;;;;;;5000932;28;20543;-64
2022/06/20 07:56:46;;;;;;;19.55;2.60;;;27.40;24.70;;;;;;4990050;28;20078;-64
2022/06/20 07:59:28;;;;;;;6.45;2.10;;;27.40;24.50;;;;;;4988045;28;20205;-64
2022/06/20 08:02:12;;;;;;;10.68;2.03;;;27.30;24.50;;;;;;4976923;28;20555;-64
2022/06/20 08:04:40;;;;;;;8.30;2.20;;;27.30;24.60;;;;;;4995590;28;20070;-64
2022/06/20 08:07:21;;;;;;;10.98;2.08;;;27.40;24.40;;;;;;4993657;28;20077;-64
2022/06/20 08:10:06;;;;;;;9.48;1.90;;;27.40;24.50;;;;;;4992918;28;20069;-65
2022/06/20 08:13:16;;;;;;;13.05;2.50;;;27.30;25.20;;;;;;4991455;28;20443;-65
2022/06/20 08:16:14;;;;;;;11.38;2.40;;;27.20;24.70;;;;;;4992627;28;20082;-65
2022/06/20 08:18:41;;;;;;;8.73;2.00;;;27.30;24.80;;;;;;4991292;28;20100;-66
2022/06/20 08:21:24;;;;;;;14.80;2.28;;;27.10;24.70;;;;;;4992091;28;20074;-64
2022/06/20 08:24:21;;;;;;;9.52;2.33;;;27.00;25.00;;;;;;4991266;28;20176;-63
2022/06/20 08:27:08;;;;;;;9.68;2.15;;;26.90;25.90;;;;;;5007318;28;20208;-65
2022/06/20 08:29:50;;;;;;;12.27;2.30;;;26.90;26.30;;;;;;4993456;28;20168;-64
2022/06/20 08:32:32;;;;;;;12.32;2.47;;;26.90;25.90;;;;;;4991888;28;20081;-63
2022/06/20 08:35:03;;;;;;;13.30;2.50;;;26.80;26.30;;;;;;4977122;28;20515;-64
2022/06/20 08:37:40;;;;;;;10.55;2.53;;;26.70;26.80;;;;;;4995328;28;20131;-65
2022/06/20 08:40:33;;;;;;;13.73;2.33;;;26.70;27.00;;;;;;4997559;28;20088;-63
2022/06/20 08:43:25;;;;;;;11.05;2.45;;;26.70;27.10;;;;;;4992353;28;20077;-62
2022/06/20 08:46:21;;;;;;;21.35;2.97;;;26.60;27.20;;;;;;4991904;28;20558;-64
2022/06/20 08:49:09;;;;;;;9.93;2.30;;;26.50;27.20;;;;;;5006476;28;20109;-62
2022/06/20 08:52:06;;;;;;;14.15;2.55;;;26.60;27.30;;;;;;4994212;28;20434;-64
2022/06/20 08:54:43;;;;;;;13.48;2.58;;;26.60;27.10;;;;;;4990897;28;20069;-63
2022/06/20 08:57:45;;;;;;;9.07;2.90;;;26.60;27.50;;;;;;4987066;28;20163;-63
2022/06/20 09:00:30;;;;;;;8.63;2.42;;;26.50;27.70;;;;;;4967085;28;20077;-63
2022/06/20 09:03:24;;;;;;;15.32;3.17;;;26.40;28.00;;;;;;5004660;28;20077;-65
2022/06/20 09:06:09;;;;;;;16.17;2.95;;;26.40;27.70;;;;;;4994531;28;20156;-63
2022/06/20 09:09:01;;;;;;;12.30;2.70;;;26.40;28.00;;;;;;4991121;28;20109;-63
2022/06/20 09:11:41;;;;;;;8.98;2.33;;;26.40;27.70;;;;;;4991665;28;20132;-63
2022/06/20 09:14:32;;;;;;;12.43;2.38;;;26.30;28.10;;;;;;4995970;28;20157;-63
2022/06/20 09:17:55;;;;;;;11.27;2.60;;;26.20;27.70;;;;;;4998071;28;20090;-63
2022/06/20 09:20:27;;;;;;;16.13;2.30;;;26.30;28.20;;;;;;4963586;28;20144;-64
2022/06/20 09:23:00;;;;;;;6.07;2.20;;;26.40;28.00;;;;;;4992414;28;20178;-62
2022/06/20 09:25:48;;;;;;;10.10;2.65;;;26.30;28.60;;;;;;5007166;28;20136;-65
2022/06/20 09:28:44;;;;;;;9.98;3.00;;;26.30;28.70;;;;;;5001095;28;20088;-61
2022/06/20 09:31:48;;;;;;;8.88;2.13;;;26.30;28.80;;;;;;4996280;28;20085;-62
2022/06/20 09:34:51;;;;;;;12.52;2.58;;;26.30;29.50;;;;;;4989370;28;20052;-63
2022/06/20 09:37:47;;;;;;;5.90;2.17;;;26.30;29.00;;;;;;4990179;28;20143;-64
2022/06/20 09:40:38;;;;;;;10.25;2.92;;;26.30;29.20;;;;;;4989946;28;20085;-63
2022/06/20 09:43:26;;;;;;;7.85;2.47;;;26.30;29.40;;;;;;4989556;28;20073;-64
2022/06/20 09:46:11;;;;;;;5.82;2.38;;;26.40;29.60;;;;;;4991569;28;20070;-65
2022/06/20 09:48:47;;;;;;;7.75;2.53;;;26.40;29.70;;;;;;4992388;28;20069;-64
2022/06/20 09:51:39;;;;;;;6.00;2.33;;;26.40;30.70;;;;;;4990451;28;20129;-63
2022/06/20 09:54:32;;;;;;;10.45;2.38;;;26.40;31.60;;;;;;4996411;28;20632;-64
2022/06/20 09:57:36;;;;;;;13.02;2.90;;;26.30;31.00;;;;;;4987821;28;20185;-63
2022/06/20 10:00:12;;;;;;;13.52;3.20;;;26.30;30.80;;;;;;4988016;28;20589;-64
2022/06/20 10:02:59;;;;;;;10.02;2.45;;;26.20;29.70;;;;;;5005393;28;20073;-65
2022/06/20 10:05:53;;;;;;;20.42;3.75;;;26.10;29.70;;;;;;4988080;28;20579;-64
2022/06/20 10:08:37;;;;;;;13.80;2.80;;;26.10;29.50;;;;;;4975390;28;20078;-64
2022/06/20 10:11:12;;;;;;;13.90;2.83;;;26.10;29.10;;;;;;4992673;28;20184;-64
2022/06/20 10:13:48;;;;;;;22.65;3.25;;;26.00;29.20;;;;;;4992758;28;20073;-64
2022/06/20 10:16:23;;;;;;;8.80;2.65;;;25.90;30.40;;;;;;4992171;28;20113;-63
2022/06/20 10:19:14;;;;;;;15.50;3.05;;;25.90;31.30;;;;;;4994949;28;20077;-63
2022/06/20 10:21:50;;;;;;;11.57;2.85;;;25.70;30.40;;;;;;4996352;28;20539;-64
2022/06/20 10:24:51;;;;;;;24.08;3.75;;;25.70;30.90;;;;;;4997306;28;20076;-63
2022/06/20 10:27:41;;;;;;;16.85;3.25;;;25.70;30.80;;;;;;4990265;28;20113;-63
2022/06/20 10:30:30;;;;;;;17.02;3.30;;;25.70;29.90;;;;;;4989106;28;20556;-64
2022/06/20 10:33:06;;;;;;;15.85;3.45;;;25.60;29.90;;;;;;4996285;28;20527;-63
2022/06/20 10:35:50;;;;;;;16.77;3.88;;;25.60;30.10;;;;;;4988897;28;20093;-64
2022/06/20 10:38:58;;;;;;;19.30;3.53;;;25.60;30.30;;;;;;4995120;28;20093;-63
2022/06/20 10:41:47;;;;;;;16.95;4.00;;;25.50;30.20;;;;;;4994966;28;20539;-64
2022/06/20 10:44:25;;;;;;;21.00;4.10;;;25.50;30.20;;;;;;4993364;28;20791;-64
2022/06/20 10:47:13;;;;;;;16.02;4.35;;;25.40;30.10;;;;;;4992638;28;20089;-63
2022/06/20 10:49:54;;;;;;;17.73;3.70;;;25.40;30.00;;;;;;4990051;28;20528;-61
2022/06/20 10:52:39;;;;;;;24.13;3.60;;;25.30;31.60;;;;;;4991627;28;20077;-66
2022/06/20 10:55:05;;;;;;;22.60;4.78;;;25.30;31.50;;;;;;4989645;28;20097;-64
2022/06/20 10:57:44;;;;;;;22.38;5.15;;;25.10;30.80;;;;;;4988575;28;20085;-63
2022/06/20 11:00:17;;;;;;;25.88;4.55;;;25.10;31.20;;;;;;4987568;28;20077;-63
2022/06/20 11:02:49;;;;;;;30.15;5.32;;;25.00;32.30;;;;;;4982717;28;20089;-67
2022/06/20 11:05:19;;;;;;;29.48;5.88;;;25.00;31.50;;;;;;4989375;28;20432;-64
2022/06/20 11:07:49;;;;;;;27.75;5.75;;;25.10;31.70;;;;;;4989513;28;20164;-64
2022/06/20 11:10:50;;;;;;;27.10;6.28;;;25.00;31.00;;;;;;4999654;28;20099;-65
2022/06/20 11:13:22;;;;;;;29.52;6.80;;;25.00;31.30;;;;;;4967007;28;20093;-65
2022/06/20 11:16:13;;;;;;;33.97;6.50;;;24.90;30.50;;;;;;4967022;28;20078;-63
2022/06/20 11:18:57;;;;;;;30.10;6.38;;;24.80;33.00;;;;;;4950999;28;20548;-62
2022/06/20 11:21:47;;;;;;;28.13;5.47;;;24.60;31.80;;;;;;4966917;28;20176;-64
2022/06/20 11:24:34;;;;;;;34.17;5.57;;;24.70;32.30;;;;;;4951525;28;20582;-65
2022/06/20 11:27:42;;;;;;;23.35;4.70;;;24.70;31.80;;;;;;4966962;28;20180;-63
2022/06/20 11:30:24;;;;;;;18.83;4.13;;;24.70;32.20;;;;;;4921444;28;20156;-67
2022/06/20 11:33:02;;;;;;;20.08;3.45;;;24.80;32.60;;;;;;4950851;28;20426;-63
2022/06/20 11:35:41;;;;;;;12.07;3.33;;;24.60;34.10;;;;;;4950549;28;20125;-63
2022/06/20 11:38:26;;;;;;;14.55;3.67;;;24.70;34.70;;;;;;4951873;28;20102;-63
2022/06/20 11:40:57;;;;;;;16.67;3.65;;;24.70;34.90;;;;;;4966992;28;20110;-64
2022/06/20 11:43:36;;;;;;;17.85;3.25;;;24.70;35.30;;;;;;4950555;28;20085;-66
2022/06/20 11:46:24;;;;;;;17.83;3.53;;;24.60;35.20;;;;;;4950958;28;21153;-62
2022/06/20 11:49:10;;;;;;;17.17;3.75;;;24.70;35.60;;;;;;4955817;28;20086;-63
2022/06/20 11:51:49;;;;;;;15.48;3.25;;;24.70;35.80;;;;;;4994393;28;20089;-64
2022/06/20 11:54:33;;;;;;;14.50;3.70;;;24.70;35.80;;;;;;4995220;28;20082;-63
2022/06/20 11:57:13;;;;;;;12.23;3.35;;;24.70;36.20;;;;;;4987350;28;20090;-64
2022/06/20 12:00:09;;;;;;;11.60;3.00;;;24.70;36.10;;;;;;4984732;28;20073;-66
2022/06/20 12:03:14;;;;;;;17.90;3.30;;;24.70;36.00;;;;;;4987109;28;20081;-66
2022/06/20 12:05:48;;;;;;;15.52;3.15;;;24.70;36.00;;;;;;4985494;28;20082;-63
2022/06/20 12:08:36;;;;;;;15.05;3.47;;;24.70;36.70;;;;;;4990661;28;20077;-63
2022/06/20 12:11:30;;;;;;;15.05;3.70;;;24.70;36.60;;;;;;4987728;28;20113;-65
2022/06/20 12:14:10;;;;;;;14.82;3.63;;;24.70;37.50;;;;;;4986956;28;20086;-65
2022/06/20 12:16:42;;;;;;;26.58;4.03;;;24.60;37.70;;;;;;4971009;28;20073;-63
2022/06/20 12:25:21;;;;;;;19.50;3.55;;;24.20;37.40;;;;;;5000132;28;20123;-62
2022/06/20 12:27:47;;;;;;;20.88;3.83;;;24.10;37.40;;;;;;4988000;28;20089;-64
2022/06/20 12:30:15;;;;;;;17.23;3.60;;;24.10;37.30;;;;;;4998096;28;20081;-64
2022/06/20 12:32:46;;;;;;;21.02;3.95;;;24.10;37.20;;;;;;5007245;28;20483;-64
2022/06/20 12:35:45;;;;;;;17.75;3.88;;;24.10;36.90;;;;;;4991024;28;20086;-67
2022/06/20 12:38:39;;;;;;;18.13;3.25;;;24.10;37.00;;;;;;4989420;28;20574;-64
2022/06/20 12:41:19;;;;;;;21.15;3.75;;;24.20;37.50;;;;;;4993200;28;20080;-64
2022/06/20 12:44:12;;;;;;;14.23;3.13;;;24.20;37.40;;;;;;5007627;28;20096;-64
2022/06/20 12:47:09;;;;;;;17.73;3.90;;;24.20;37.50;;;;;;4991057;28;20532;-64
2022/06/20 12:49:54;;;;;;;22.10;3.58;;;24.20;38.20;;;;;;4992681;28;20089;-65
2022/06/20 12:53:00;;;;;;;19.52;4.10;;;24.10;38.20;;;;;;4994723;28;20085;-65
2022/06/20 12:55:56;;;;;;;14.77;3.40;;;24.10;38.00;;;;;;4989889;28;20084;-64
2022/06/20 12:58:25;;;;;;;20.27;3.20;;;24.10;38.00;;;;;;4997390;28;20532;-66
2022/06/20 13:00:57;;;;;;;18.15;3.90;;;24.10;38.10;;;;;;4987895;28;20078;-63
2022/06/20 13:03:36;;;;;;;19.63;4.03;;;24.10;38.20;;;;;;4992061;28;20081;-64
2022/06/20 13:06:19;;;;;;;17.52;3.47;;;24.10;38.40;;;;;;4991162;28;20088;-64
2022/06/20 13:09:13;;;;;;;19.27;3.92;;;24.20;38.20;;;;;;5005541;28;20074;-65
2022/06/20 13:12:01;;;;;;;23.45;3.60;;;24.20;38.70;;;;;;4990127;28;20124;-66
2022/06/20 13:15:02;;;;;;;26.45;4.20;;;24.20;38.60;;;;;;4990498;28;20547;-62
2022/06/20 13:18:07;;;;;;;26.83;3.97;;;24.30;38.00;;;;;;4994306;28;20122;-62
2022/06/20 13:20:48;;;;;;;21.20;4.32;;;24.30;38.10;;;;;;4989034;28;20116;-65
2022/06/20 13:23:15;;;;;;;17.40;3.83;;;24.30;37.30;;;;;;4995826;28;20074;-61
2022/06/20 13:25:50;;;;;;;18.70;4.07;;;24.30;36.80;;;;;;4989737;28;20113;-63
2022/06/20 13:28:26;;;;;;;14.02;3.92;;;24.40;36.80;;;;;;4990116;28;20421;-66
2022/06/20 13:31:07;;;;;;;24.10;4.17;;;24.40;37.10;;;;;;4989838;28;20073;-61
2022/06/20 13:34:11;;;;;;;14.35;3.67;;;24.50;36.80;;;;;;4987788;28;20342;-65
2022/06/20 13:37:05;;;;;;;20.90;4.45;;;24.60;35.80;;;;;;4989245;28;20135;-63
2022/06/20 13:39:51;;;;;;;16.73;3.97;;;24.70;35.10;;;;;;5004839;28;20151;-61
2022/06/20 13:42:22;;;;;;;22.05;4.13;;;24.70;34.10;;;;;;4990082;28;20093;-63
2022/06/20 13:44:54;;;;;;;12.07;3.75;;;24.70;33.80;;;;;;4989328;28;20081;-64
2022/06/20 13:47:35;;;;;;;20.30;3.83;;;24.80;33.50;;;;;;4992761;28;20081;-64
2022/06/20 13:50:29;;;;;;;18.15;3.60;;;24.90;33.60;;;;;;5002996;28;20093;-64
2022/06/20 13:52:55;;;;;;;23.67;3.47;;;24.90;32.90;;;;;;4989822;28;20117;-66
2022/06/20 13:55:47;;;;;;;11.95;3.63;;;24.90;32.20;;;;;;4990336;28;20552;-64
2022/06/20 13:58:46;;;;;;;22.10;4.20;;;25.10;32.30;;;;;;4989927;28;20112;-65
2022/06/20 14:01:17;;;;;;;24.52;4.32;;;25.20;32.80;;;;;;4987322;28;20114;-65